Latest Weather Observations for Moranbah Airport

IDQ60801

Issued at 8:02 am EST Thursday 19 January 2017 (issued every 30 minutes, with the page automatically refreshed every 10 minutes)

About weather observations | Map of weather stations | Latest weather observations for QLD | Other Formats
Station Details ID: 034035 Name: MORANBAH AIRPORT Lat: -22.06 Lon: 148.08 Height: 232.2 m
Data from the previous 72 hours. | See also: Recent months at Moranbah Airport
Date/Time
EST
Temp
°C
App
Temp
°C
Dew
Point
°C
Rel
Hum
%
Delta-T
°C
Wind Press
QNH
hPa
Press
MSL
hPa
Rain since
9am
mm
Dir  Spd
km/h
Gust
km/h
Spd
kts
Gust
kts
19/07:30am 26.1 27.6 21.3 75 3.2 NNW 15 20 8 11 1012.8 1011.2 0.0
19/07:00am 24.7 27.5 21.6 83 2.1 N 9 13 5 7 1012.8 1011.2 0.0
19/06:30am 23.7 26.7 21.2 86 1.7 NNE 7 9 4 5 1012.6 1010.9 0.0
19/06:00am 22.5 24.9 20.8 90 1.1 NNE 9 11 5 6 1012.3 1010.6 0.0
19/05:30am 22.9 25.8 21.0 89 1.3 N 7 9 4 5 1011.8 1010.2 0.0
19/05:00am 23.1 25.6 21.0 88 1.4 NNW 9 11 5 6 1011.5 1009.9 0.0
19/04:30am 22.7 25.6 21.0 90 1.1 WNW 7 9 4 5 1011.2 1009.6 0.0
19/04:00am 22.4 25.3 21.0 92 0.9 WSW 7 9 4 5 1011.0 1009.4 0.0
19/03:30am 22.3 25.1 20.9 92 0.9 W 7 9 4 5 1010.7 1009.1 0.0
19/03:00am 22.6 26.8 20.9 90 1.1 CALM 0 0 0 0 1010.7 1009.1 0.0
19/02:30am 23.1 26.2 21.0 88 1.4 ESE 6 7 3 4 1010.8 1009.2 0.0
19/02:00am 23.2 25.7 21.1 88 1.4 E 9 11 5 6 1011.1 1009.5 0.0
19/01:30am 23.7 27.1 21.6 88 1.4 ESE 6 7 3 4 1011.1 1009.5 0.0
19/01:00am 23.6 26.6 21.3 87 1.5 ESE 7 9 4 5 1011.5 1009.9 0.0
19/12:30am 24.5 27.9 21.6 84 1.9 ESE 6 7 3 4 1011.8 1010.2 0.0
19/12:00am 24.9 28.1 21.6 82 2.2 NNE 7 9 4 5 1011.9 1010.3 0.0
 
Date/Time
EST
Temp
°C
App
Temp
°C
Dew
Point
°C
Rel
Hum
%
Delta-T
°C
Wind Press
QNH
hPa
Press
MSL
hPa
Rain since
9am
mm
Dir  Spd
km/h
Gust
km/h
Spd
kts
Gust
kts
18/11:30pm 25.3 28.6 21.8 81 2.4 E 7 7 4 4 1011.9 1010.3 0.0
18/11:00pm 25.7 29.1 21.6 78 2.7 E 6 7 3 4 1012.0 1010.4 0.0
18/10:30pm 26.7 28.9 21.9 75 3.2 ENE 13 17 7 9 1012.0 1010.4 0.0
18/10:00pm 27.3 29.6 22.0 73 3.6 ENE 13 15 7 8 1011.9 1010.3 0.0
18/09:30pm 27.9 29.3 21.9 70 4.1 ENE 17 22 9 12 1011.6 1010.0 0.0
18/09:00pm 27.1 28.4 19.4 62 5.0 E 11 13 6 7 1011.4 1009.8 0.0
18/08:30pm 28.7 29.9 18.2 53 6.8 ENE 9 15 5 8 1011.0 1009.4 0.0
18/08:00pm 29.1 29.7 17.6 50 7.4 ENE 11 13 6 7 1010.7 1009.1 0.0
18/07:30pm 29.1 30.4 18.5 52 6.9 E 9 11 5 6 1010.4 1008.8 0.0
18/07:00pm 31.6 33.4 18.2 44 8.7 ENE 6 9 3 5 1010.3 1008.7 0.0
18/06:30pm 33.1 34.3 16.9 38 10.4 NNE 6 7 3 4 1010.1 1008.5 0.0
18/06:00pm 33.6 34.4 17.3 37 10.5 NNE 9 13 5 7 1009.9 1008.3 0.0
18/05:30pm 34.2 35.2 17.8 37 10.7 NNE 9 15 5 8 1009.8 1008.2 0.0
18/05:00pm 34.6 34.9 16.9 35 11.4 NE 11 17 6 9 1009.9 1008.3 0.0
18/04:30pm 34.6 34.3 16.4 33 11.6 ENE 13 15 7 8 1010.1 1008.5 0.0
18/04:00pm 34.4 35.3 16.7 34 11.4 SE 7 11 4 6 1010.4 1008.8 0.0
18/03:30pm 34.5 35.5 17.7 37 10.9 ESE 9 13 5 7 1010.7 1009.1 0.0
18/03:00pm 33.8 33.9 17.5 38 10.6 N 13 20 7 11 1011.1 1009.5 0.0
18/02:30pm 34.0 35.3 19.3 42 9.8 N 11 19 6 10 1011.7 1010.1 0.0
18/02:00pm 33.6 35.1 19.7 44 9.3 NW 11 20 6 11 1012.0 1010.4 0.0
18/01:30pm 32.9 34.2 19.4 45 9.0 NNW 11 17 6 9 1012.6 1010.9 0.0
18/01:00pm 32.4 34.1 19.3 46 8.7 ENE 9 20 5 11 1013.1 1011.5 0.0
18/12:30pm 32.1 33.8 19.4 47 8.4 NE 9 13 5 7 1013.4 1011.8 0.0
18/12:00pm 31.5 33.3 19.5 49 7.9 ESE 9 17 5 9 1013.8 1012.2 0.0
18/11:30am 31.0 32.9 20.6 54 7.0 ENE 11 24 6 13 1014.2 1012.6 0.0
18/11:00am 29.8 31.1 20.1 56 6.4 NE 13 20 7 11 1014.8 1013.2 0.0
18/10:30am 29.4 31.6 21.1 61 5.6 E 11 19 6 10 1015.2 1013.6 0.0
18/10:00am 29.0 31.5 21.0 62 5.4 ENE 9 15 5 8 1015.4 1013.8 0.0
18/09:30am 28.0 29.5 20.6 64 4.9 ENE 13 19 7 10 1015.6 1014.0 0.0
18/09:00am 27.8 29.6 20.4 64 4.9 NE 11 20 6 11 1015.9 1014.3 0.0
18/08:30am 26.2 28.7 20.3 70 3.9 SE 7 15 4 8 1016.0 1014.4 0.0
18/08:00am 25.6 27.8 20.4 73 3.4 E 9 13 5 7 1016.2 1014.6 0.0
18/07:30am 24.6 27.1 21.1 81 2.3 ESE 9 11 5 6 1016.1 1014.5 0.0
18/07:00am 23.5 25.8 21.4 88 1.4 ESE 11 15 6 8 1015.8 1014.2 0.0
18/06:30am 21.7 23.7 20.7 94 0.7 SE 11 13 6 7 1015.4 1013.8 0.0
18/06:00am 20.3 21.4 19.6 96 0.4 ESE 13 13 7 7 1015.0 1013.4 0.0
18/05:30am 20.0 20.9 19.3 96 0.4 SE 13 15 7 8 1014.7 1013.1 0.0
18/05:00am 20.1 21.1 19.4 96 0.4 SE 13 13 7 7 1014.2 1012.6 0.0
18/04:30am 20.0 20.9 19.3 96 0.4 SE 13 15 7 8 1013.9 1012.3 0.0
18/04:00am 20.0 21.2 19.0 94 0.6 SSE 11 11 6 6 1013.8 1012.2 0.0
18/03:30am 20.1 22.1 19.1 94 0.6 S 7 9 4 5 1013.7 1012.1 0.0
18/03:00am 20.1 21.3 19.1 94 0.6 SE 11 11 6 6 1013.5 1011.9 0.0
18/02:30am 19.9 20.8 18.4 91 0.9 SE 11 13 6 7 1013.5 1011.9 0.0
18/02:00am 21.5 23.8 19.8 90 1.1 SE 7 9 4 5 1013.9 1012.3 0.0
18/01:30am 21.7 24.0 19.8 89 1.2 SSE 7 9 4 5 1014.1 1012.5 0.0
18/01:00am 22.5 25.1 20.4 88 1.4 E 7 7 4 4 1014.3 1012.7 0.0
18/12:30am 22.7 25.0 19.5 82 2.1 E 6 7 3 4 1014.6 1013.0 0.0
18/12:00am 23.4 25.9 20.3 83 2.0 E 7 9 4 5 1014.9 1013.3 0.0
 
Date/Time
EST
Temp
°C
App
Temp
°C
Dew
Point
°C
Rel
Hum
%
Delta-T
°C
Wind Press
QNH
hPa
Press
MSL
hPa
Rain since
9am
mm
Dir  Spd
km/h
Gust
km/h
Spd
kts
Gust
kts
17/11:30pm 24.3 25.4 20.4 79 2.6 ENE 15 19 8 10 1015.0 1013.4 0.0
17/11:00pm 25.0 25.9 20.9 78 2.7 E 17 22 9 12 1015.3 1013.7 0.0
17/10:30pm 24.9 26.1 20.6 77 2.8 ENE 15 17 8 9 1015.4 1013.8 0.0
17/10:00pm 25.3 26.7 20.3 74 3.3 ENE 13 17 7 9 1015.2 1013.6 0.0
17/09:30pm 26.0 27.6 19.9 69 4.0 ENE 11 13 6 7 1015.1 1013.5 0.0
17/09:00pm 26.9 26.9 19.8 65 4.7 ENE 19 24 10 13 1014.8 1013.2 0.0
17/08:30pm 27.8 27.8 20.1 63 5.1 ENE 20 30 11 16 1014.4 1012.8 0.0
17/08:00pm 28.1 28.8 19.6 60 5.6 ENE 15 20 8 11 1013.9 1012.3 0.0
17/07:30pm 29.5 29.2 19.2 54 6.7 ENE 19 24 10 13 1013.6 1012.0 0.0
17/07:00pm 30.6 31.0 19.0 50 7.6 ENE 15 20 8 11 1013.2 1011.6 0.0
17/06:30pm 31.3 30.8 19.0 48 8.1 ENE 20 28 11 15 1013.1 1011.5 0.0
17/06:00pm 31.5 30.4 19.5 49 7.9 E 24 32 13 17 1012.8 1011.2 0.0
17/05:30pm 32.6 31.3 19.8 46 8.5 E 26 37 14 20 1012.4 1010.7 0.0
17/05:00pm 32.8 30.8 20.0 47 8.6 E 30 37 16 20 1011.9 1010.3 0.0
17/04:30pm 32.4 30.7 18.9 44 8.9 E 26 35 14 19 1011.7 1010.1 0.0
17/04:00pm 34.0 33.5 16.8 35 11.1 E 15 24 8 13 1011.6 1010.0 0.0
17/03:30pm 33.2 31.3 15.2 33 11.3 ENE 19 26 10 14 1011.8 1010.2 0.0
17/03:00pm 34.1 33.2 16.9 36 11.1 ESE 17 30 9 16 1012.1 1010.5 0.0
17/02:30pm 33.3 32.0 15.8 35 11.1 E 17 26 9 14 1012.6 1010.9 0.0
17/02:00pm 33.6 32.7 16.9 37 10.7 E 17 26 9 14 1013.0 1011.4 0.0
17/01:30pm 32.8 31.2 16.6 38 10.3 ENE 20 32 11 17 1013.4 1011.8 0.0
17/01:00pm 33.2 33.4 18.6 42 9.6 E 15 26 8 14 1014.0 1012.4 0.0
17/12:30pm 31.6 31.6 18.2 44 8.7 E 15 24 8 13 1014.6 1013.0 0.0
17/12:00pm 31.8 32.0 19.4 47 8.2 E 17 24 9 13 1015.1 1013.5 0.0
17/11:30am 31.2 31.6 18.9 48 8.1 ESE 15 22 8 12 1015.4 1013.8 0.0
17/11:00am 30.4 30.4 18.2 48 7.9 E 15 22 8 12 1015.7 1014.1 0.0
17/10:30am 30.1 30.6 20.1 55 6.6 ESE 17 24 9 13 1016.0 1014.4 0.0
17/10:00am 28.9 29.7 19.8 58 6.0 E 15 20 8 11 1016.2 1014.6 0.0
17/09:30am 29.7 30.5 21.4 61 5.6 E 19 28 10 15 1016.1 1014.5 0.0
17/09:00am 27.6 28.7 21.2 68 4.3 E 17 26 9 14 1016.0 1014.4 0.0
17/08:30am 26.5 27.5 21.0 72 3.7 E 17 24 9 13 1016.1 1014.5 0.0
17/08:00am 25.6 26.8 21.5 78 2.7 E 17 22 9 12 1016.0 1014.4 0.0
17/07:30am 25.0 25.8 21.3 80 2.5 ESE 19 24 10 13 1016.0 1014.4 0.0
17/07:00am 24.7 25.5 21.4 82 2.2 ESE 19 24 10 13 1015.7 1014.1 0.0
17/06:30am 23.9 25.6 21.6 87 1.5 SE 15 19 8 10 1015.4 1013.8 0.0
17/06:00am 23.0 25.4 21.6 92 0.9 SE 11 15 6 8 1015.2 1013.6 0.0
17/05:30am 22.7 24.5 21.2 91 1.0 SE 13 15 7 8 1014.7 1013.1 0.0
17/05:00am 23.1 24.7 21.4 90 1.1 ESE 15 19 8 10 1014.2 1012.6 0.0
17/04:30am 23.3 25.3 21.6 90 1.1 SE 13 15 7 8 1013.9 1012.3 0.0
17/04:00am 23.3 25.7 21.6 90 1.1 SE 11 13 6 7 1013.6 1012.0 0.0
17/03:30am 23.2 26.1 21.8 92 0.9 SSE 9 11 5 6 1013.5 1011.9 0.0
17/03:00am 23.2 26.5 21.8 92 0.9 S 7 9 4 5 1013.5 1011.9 0.0
17/02:30am 23.0 25.8 21.5 91 1.0 SE 9 9 5 5 1013.4 1011.8 0.0
17/02:00am 23.4 26.2 21.5 89 1.3 ESE 9 13 5 7 1013.5 1011.9 0.0
17/01:30am 23.7 26.1 21.6 88 1.4 ESE 11 15 6 8 1013.5 1011.9 0.0
17/01:00am 24.1 26.5 21.6 86 1.7 ESE 11 15 6 8 1013.8 1012.2 0.0
17/12:30am 24.3 26.5 21.8 86 1.7 ESE 13 17 7 9 1013.9 1012.3 0.0
17/12:00am 24.2 26.7 21.7 86 1.7 ESE 11 13 6 7 1014.2 1012.6 0.0
 
Date/Time
EST
Temp
°C
App
Temp
°C
Dew
Point
°C
Rel
Hum
%
Delta-T
°C
Wind Press
QNH
hPa
Press
MSL
hPa
Rain since
9am
mm
Dir  Spd
km/h
Gust
km/h
Spd
kts
Gust
kts
16/11:30pm 24.7 27.2 21.8 84 1.9 E 11 15 6 8 1014.2 1012.6 0.0
16/11:00pm 25.2 27.0 21.9 82 2.2 E 15 20 8 11 1014.3 1012.7 0.0
16/10:30pm 25.5 27.3 21.8 80 2.5 E 15 20 8 11 1014.2 1012.6 0.0
16/10:00pm 26.0 27.4 21.9 78 2.8 E 17 22 9 12 1013.8 1012.2 0.0
16/09:30pm 26.5 27.9 21.9 76 3.1 ENE 17 20 9 11 1013.5 1011.9 0.0
16/09:00pm 27.2 27.6 21.7 72 3.7 ENE 22 32 12 17 1013.1 1011.5 0.0
16/08:30pm 27.7 29.0 21.7 70 4.0 ENE 17 26 9 14 1012.9 1011.3 0.0
16/08:00pm 28.1 29.4 21.6 68 4.4 NE 17 22 9 12 1012.5 1010.8 0.0
16/07:30pm 28.6 29.2 21.4 65 4.8 NE 20 30 11 16 1012.0 1010.4 0.0
16/07:00pm 29.5 29.7 21.4 61 5.5 NE 22 35 12 19 1011.3 1009.7 0.0
16/06:30pm 30.9 29.8 21.1 56 6.6 NE 28 37 15 20 1010.5 1008.9 0.0
16/06:00pm 32.2 32.3 21.1 52 7.5 ENE 22 32 12 17 1009.9 1008.3 0.0
16/05:30pm 32.8 32.8 21.0 50 8.0 ENE 22 30 12 16 1009.6 1008.0 0.0
16/05:00pm 32.9 32.2 21.1 50 8.0 ENE 26 37 14 20 1009.3 1007.7 0.0
16/04:35pm 31.2 30.1 21.1 55 6.8 E 28 46 15 25 1009.2 1007.6 0.0
16/04:30pm 31.3 29.4 20.9 54 7.0 E 32 46 17 25 1009.2 1007.6 0.0
16/04:00pm 34.3 34.5 22.0 48 8.5 NE 24 32 13 17 1009.1 1007.5 0.0
16/03:30pm 34.8 35.1 20.7 43 9.6 ENE 20 28 11 15 1009.0 1007.4 0.0
16/03:00pm 34.4 34.3 18.8 39 10.3 NE 17 22 9 12 1009.2 1007.6 0.0
16/02:30pm 34.5 36.7 21.9 48 8.7 E 13 20 7 11 1009.5 1007.9 0.0
16/02:00pm 33.2 33.7 20.0 45 8.8 E 17 24 9 13 1009.8 1008.2 0.0
16/01:30pm 33.8 35.1 20.9 46 8.7 NE 15 28 8 15 1010.0 1008.4 0.0
16/01:00pm 32.1 32.8 20.4 50 7.9 E 17 22 9 12 1010.3 1008.7 0.0
16/12:30pm 32.5 34.8 21.4 52 7.6 E 11 17 6 9 1010.6 1009.0 0.0
16/12:00pm 31.9 33.2 20.2 50 7.8 ESE 13 19 7 10 1010.8 1009.2 0.0
16/11:30am 31.4 33.8 21.6 56 6.7 N 11 19 6 10 1011.2 1009.6 0.0
16/11:00am 31.1 33.4 21.3 56 6.6 NE 11 19 6 10 1011.6 1010.0 0.0
16/10:30am 30.1 32.0 20.6 56 6.4 NNW 11 19 6 10 1011.8 1010.2 0.0
16/10:00am 30.0 31.8 21.1 59 6.0 N 13 20 7 11 1011.9 1010.3 0.0
16/09:30am 28.7 30.9 21.2 64 5.0 NNE 11 17 6 9 1011.9 1010.3 0.0
16/09:00am 28.4 31.1 21.4 66 4.7 NNW 9 15 5 8 1011.9 1010.3 0.0
16/08:30am 28.1 31.4 21.9 69 4.2 NNE 7 11 4 6 1011.9 1010.3 0.0

Other Formats:

Comma delimited format used in spreadsheet applications
http://www.bom.gov.au/fwo/IDQ60801/IDQ60801.94397.axf

JavaScript Object Notation format (JSON) in row-major order
http://www.bom.gov.au/fwo/IDQ60801/IDQ60801.94397.json